El Vigia, Venezuela
Current Conditions -  °F | °C
As of 7:00 PM on Sunday 25 Jan 2015 (Local Time) from SVVG Reporting Station
Scattered Clouds Scattered Clouds  
Wind Chill: 86°   Ceiling: Unl
Heat Index: 93°   Visibility: 6mi
Dew Point: 73°   Wind: 2mph
Humidity: 66%   Direction: 20°NNE
Pressure: 29.74"   Gusts: NA
Location:  8.63°N, 71.65°W
Report Text: SVVG 252300Z 02002KT 9999 SCT017 30/23 Q1007
Loading
Personal Weather Stations






























Interactive Weather Map New forecast layout! Learn more

10-Day Weather Forecast

Advertisements
Track Severe Weather on mobile